sensor_id;sensor_type;location;lat;lon;timestamp;P1;durP1;ratioP1;P2;durP2;ratioP2
9465;SDS011;4771;48.726;9.006;2022-11-09T00:00:02;5.07;;;3.83;;
9465;SDS011;4771;48.726;9.006;2022-11-09T00:02:32;4.73;;;3.53;;
9465;SDS011;4771;48.726;9.006;2022-11-09T00:04:59;5.60;;;3.95;;
9465;SDS011;4771;48.726;9.006;2022-11-09T00:07:28;6.07;;;4.20;;
9465;SDS011;4771;48.726;9.006;2022-11-09T00:09:55;5.50;;;3.78;;
9465;SDS011;4771;48.726;9.006;2022-11-09T00:12:22;8.55;;;3.63;;
9465;SDS011;4771;48.726;9.006;2022-11-09T00:14:49;7.80;;;4.03;;
9465;SDS011;4771;48.726;9.006;2022-11-09T00:17:16;5.10;;;3.63;;
9465;SDS011;4771;48.726;9.006;2022-11-09T00:19:44;4.72;;;3.33;;
9465;SDS011;4771;48.726;9.006;2022-11-09T00:22:11;4.72;;;3.25;;
9465;SDS011;4771;48.726;9.006;2022-11-09T00:24:38;5.88;;;3.42;;
9465;SDS011;4771;48.726;9.006;2022-11-09T00:27:05;5.25;;;3.38;;
9465;SDS011;4771;48.726;9.006;2022-11-09T00:29:32;5.22;;;3.10;;
9465;SDS011;4771;48.726;9.006;2022-11-09T00:31:59;5.78;;;3.08;;
9465;SDS011;4771;48.726;9.006;2022-11-09T00:34:26;5.63;;;3.00;;
9465;SDS011;4771;48.726;9.006;2022-11-09T00:36:54;5.65;;;3.40;;
9465;SDS011;4771;48.726;9.006;2022-11-09T00:39:21;4.43;;;3.05;;
9465;SDS011;4771;48.726;9.006;2022-11-09T00:41:48;5.20;;;2.75;;
9465;SDS011;4771;48.726;9.006;2022-11-09T00:44:15;4.57;;;3.40;;
9465;SDS011;4771;48.726;9.006;2022-11-09T00:46:42;5.53;;;3.20;;
9465;SDS011;4771;48.726;9.006;2022-11-09T00:49:09;5.85;;;3.15;;
9465;SDS011;4771;48.726;9.006;2022-11-09T00:51:36;4.00;;;3.08;;
9465;SDS011;4771;48.726;9.006;2022-11-09T00:54:04;4.30;;;2.42;;
9465;SDS011;4771;48.726;9.006;2022-11-09T00:56:32;3.83;;;2.88;;
9465;SDS011;4771;48.726;9.006;2022-11-09T00:58:59;5.72;;;3.20;;
9465;SDS011;4771;48.726;9.006;2022-11-09T01:01:26;4.82;;;2.90;;
9465;SDS011;4771;48.726;9.006;2022-11-09T01:03:53;4.35;;;2.70;;
9465;SDS011;4771;48.726;9.006;2022-11-09T01:06:21;4.45;;;2.88;;
9465;SDS011;4771;48.726;9.006;2022-11-09T01:08:49;4.18;;;2.88;;
9465;SDS011;4771;48.726;9.006;2022-11-09T01:11:18;6.30;;;3.17;;
9465;SDS011;4771;48.726;9.006;2022-11-09T01:13:46;5.65;;;3.20;;
9465;SDS011;4771;48.726;9.006;2022-11-09T01:16:14;3.90;;;3.00;;
9465;SDS011;4771;48.726;9.006;2022-11-09T01:18:42;5.85;;;3.35;;
9465;SDS011;4771;48.726;9.006;2022-11-09T01:21:11;5.20;;;3.00;;
9465;SDS011;4771;48.726;9.006;2022-11-09T01:23:39;5.43;;;3.40;;
9465;SDS011;4771;48.726;9.006;2022-11-09T01:26:08;5.68;;;3.10;;
9465;SDS011;4771;48.726;9.006;2022-11-09T01:28:38;9.18;;;3.92;;
9465;SDS011;4771;48.726;9.006;2022-11-09T01:31:06;5.05;;;3.60;;
9465;SDS011;4771;48.726;9.006;2022-11-09T01:33:35;4.18;;;3.20;;
9465;SDS011;4771;48.726;9.006;2022-11-09T01:36:02;5.68;;;3.20;;
9465;SDS011;4771;48.726;9.006;2022-11-09T01:38:30;5.47;;;3.38;;
9465;SDS011;4771;48.726;9.006;2022-11-09T01:40:57;5.25;;;3.00;;
9465;SDS011;4771;48.726;9.006;2022-11-09T01:43:24;5.05;;;3.28;;
9465;SDS011;4771;48.726;9.006;2022-11-09T01:45:53;5.93;;;3.45;;
9465;SDS011;4771;48.726;9.006;2022-11-09T01:48:26;6.38;;;3.22;;
9465;SDS011;4771;48.726;9.006;2022-11-09T01:51:04;6.35;;;3.40;;
9465;SDS011;4771;48.726;9.006;2022-11-09T01:53:36;5.10;;;3.30;;
9465;SDS011;4771;48.726;9.006;2022-11-09T01:56:09;4.10;;;3.00;;
9465;SDS011;4771;48.726;9.006;2022-11-09T01:58:40;7.72;;;3.53;;
9465;SDS011;4771;48.726;9.006;2022-11-09T02:01:13;5.78;;;3.35;;
9465;SDS011;4771;48.726;9.006;2022-11-09T02:03:43;4.95;;;3.15;;
9465;SDS011;4771;48.726;9.006;2022-11-09T02:06:16;4.68;;;2.95;;
9465;SDS011;4771;48.726;9.006;2022-11-09T02:08:45;5.57;;;3.25;;
9465;SDS011;4771;48.726;9.006;2022-11-09T02:11:15;3.92;;;3.15;;
9465;SDS011;4771;48.726;9.006;2022-11-09T02:13:45;4.15;;;3.00;;
9465;SDS011;4771;48.726;9.006;2022-11-09T02:16:18;5.30;;;3.25;;
9465;SDS011;4771;48.726;9.006;2022-11-09T02:18:47;3.92;;;3.15;;
9465;SDS011;4771;48.726;9.006;2022-11-09T02:21:19;4.25;;;3.17;;
9465;SDS011;4771;48.726;9.006;2022-11-09T02:23:46;4.05;;;3.08;;
9465;SDS011;4771;48.726;9.006;2022-11-09T02:26:15;5.13;;;2.97;;
9465;SDS011;4771;48.726;9.006;2022-11-09T02:28:46;4.20;;;3.20;;
9465;SDS011;4771;48.726;9.006;2022-11-09T02:31:14;4.13;;;3.17;;
9465;SDS011;4771;48.726;9.006;2022-11-09T02:33:43;4.15;;;3.05;;
9465;SDS011;4771;48.726;9.006;2022-11-09T02:36:19;5.18;;;3.00;;
9465;SDS011;4771;48.726;9.006;2022-11-09T02:38:47;6.22;;;3.20;;
9465;SDS011;4771;48.726;9.006;2022-11-09T02:41:14;5.05;;;3.10;;
9465;SDS011;4771;48.726;9.006;2022-11-09T02:43:42;4.75;;;2.80;;
9465;SDS011;4771;48.726;9.006;2022-11-09T02:46:09;5.38;;;3.00;;
9465;SDS011;4771;48.726;9.006;2022-11-09T02:48:36;4.35;;;3.10;;
9465;SDS011;4771;48.726;9.006;2022-11-09T02:51:04;4.32;;;3.05;;
9465;SDS011;4771;48.726;9.006;2022-11-09T02:53:32;3.35;;;2.58;;
9465;SDS011;4771;48.726;9.006;2022-11-09T02:55:59;4.93;;;3.30;;
9465;SDS011;4771;48.726;9.006;2022-11-09T02:58:26;6.53;;;2.97;;
9465;SDS011;4771;48.726;9.006;2022-11-09T03:00:53;7.82;;;3.00;;
9465;SDS011;4771;48.726;9.006;2022-11-09T03:03:20;4.30;;;3.17;;
9465;SDS011;4771;48.726;9.006;2022-11-09T03:05:47;4.43;;;3.22;;
9465;SDS011;4771;48.726;9.006;2022-11-09T03:08:14;4.50;;;3.03;;
9465;SDS011;4771;48.726;9.006;2022-11-09T03:10:42;5.28;;;3.28;;
9465;SDS011;4771;48.726;9.006;2022-11-09T03:13:09;6.05;;;3.25;;
9465;SDS011;4771;48.726;9.006;2022-11-09T03:15:36;4.30;;;3.30;;
9465;SDS011;4771;48.726;9.006;2022-11-09T03:18:03;5.22;;;3.20;;
9465;SDS011;4771;48.726;9.006;2022-11-09T03:20:30;6.90;;;3.78;;
9465;SDS011;4771;48.726;9.006;2022-11-09T03:22:58;8.65;;;3.50;;
9465;SDS011;4771;48.726;9.006;2022-11-09T03:25:26;6.80;;;3.90;;
9465;SDS011;4771;48.726;9.006;2022-11-09T03:27:58;4.63;;;3.47;;
9465;SDS011;4771;48.726;9.006;2022-11-09T03:30:26;5.00;;;3.50;;
9465;SDS011;4771;48.726;9.006;2022-11-09T03:32:57;4.17;;;3.00;;
9465;SDS011;4771;48.726;9.006;2022-11-09T03:35:24;3.85;;;3.13;;
9465;SDS011;4771;48.726;9.006;2022-11-09T03:37:52;5.97;;;3.20;;
9465;SDS011;4771;48.726;9.006;2022-11-09T03:40:19;6.57;;;3.53;;
9465;SDS011;4771;48.726;9.006;2022-11-09T03:42:46;4.80;;;3.10;;
9465;SDS011;4771;48.726;9.006;2022-11-09T03:45:15;5.43;;;3.50;;
9465;SDS011;4771;48.726;9.006;2022-11-09T03:47:43;4.07;;;3.20;;
9465;SDS011;4771;48.726;9.006;2022-11-09T03:50:11;5.30;;;3.17;;
9465;SDS011;4771;48.726;9.006;2022-11-09T03:52:39;5.67;;;3.17;;
9465;SDS011;4771;48.726;9.006;2022-11-09T03:55:08;6.38;;;3.42;;
9465;SDS011;4771;48.726;9.006;2022-11-09T03:57:36;6.17;;;3.13;;
9465;SDS011;4771;48.726;9.006;2022-11-09T04:00:03;4.87;;;3.70;;
9465;SDS011;4771;48.726;9.006;2022-11-09T04:05:00;4.40;;;3.20;;
9465;SDS011;4771;48.726;9.006;2022-11-09T04:07:27;6.30;;;3.93;;
9465;SDS011;4771;48.726;9.006;2022-11-09T04:09:54;6.53;;;3.93;;
9465;SDS011;4771;48.726;9.006;2022-11-09T04:12:21;5.13;;;3.90;;
9465;SDS011;4771;48.726;9.006;2022-11-09T04:14:48;7.83;;;4.73;;
9465;SDS011;4771;48.726;9.006;2022-11-09T04:17:15;5.50;;;4.70;;
9465;SDS011;4771;48.726;9.006;2022-11-09T04:19:44;4.90;;;3.60;;
9465;SDS011;4771;48.726;9.006;2022-11-09T04:22:10;3.73;;;3.30;;
9465;SDS011;4771;48.726;9.006;2022-11-09T04:24:37;5.60;;;3.73;;
9465;SDS011;4771;48.726;9.006;2022-11-09T04:27:05;6.00;;;4.27;;
9465;SDS011;4771;48.726;9.006;2022-11-09T04:29:32;5.73;;;3.57;;
9465;SDS011;4771;48.726;9.006;2022-11-09T04:31:59;5.37;;;3.30;;
9465;SDS011;4771;48.726;9.006;2022-11-09T04:34:26;5.67;;;3.90;;
9465;SDS011;4771;48.726;9.006;2022-11-09T04:36:54;6.10;;;3.50;;
9465;SDS011;4771;48.726;9.006;2022-11-09T04:39:21;8.20;;;4.10;;
9465;SDS011;4771;48.726;9.006;2022-11-09T04:41:48;5.00;;;3.57;;
9465;SDS011;4771;48.726;9.006;2022-11-09T04:44:15;3.77;;;3.37;;
9465;SDS011;4771;48.726;9.006;2022-11-09T04:46:42;4.20;;;3.40;;
9465;SDS011;4771;48.726;9.006;2022-11-09T04:49:09;5.57;;;3.10;;
9465;SDS011;4771;48.726;9.006;2022-11-09T04:51:36;3.97;;;2.90;;
9465;SDS011;4771;48.726;9.006;2022-11-09T04:54:04;5.60;;;2.57;;
9465;SDS011;4771;48.726;9.006;2022-11-09T04:56:31;3.10;;;2.30;;
9465;SDS011;4771;48.726;9.006;2022-11-09T04:58:58;3.43;;;2.60;;
9465;SDS011;4771;48.726;9.006;2022-11-09T05:01:25;5.27;;;2.70;;
9465;SDS011;4771;48.726;9.006;2022-11-09T05:03:52;4.33;;;2.27;;
9465;SDS011;4771;48.726;9.006;2022-11-09T05:06:19;4.20;;;2.67;;
9465;SDS011;4771;48.726;9.006;2022-11-09T05:08:58;3.10;;;2.80;;
9465;SDS011;4771;48.726;9.006;2022-11-09T05:11:27;3.17;;;2.50;;
9465;SDS011;4771;48.726;9.006;2022-11-09T05:13:55;4.53;;;2.60;;
9465;SDS011;4771;48.726;9.006;2022-11-09T05:16:22;3.60;;;2.57;;
9465;SDS011;4771;48.726;9.006;2022-11-09T05:18:49;3.85;;;2.67;;
9465;SDS011;4771;48.726;9.006;2022-11-09T05:21:17;3.37;;;2.80;;
9465;SDS011;4771;48.726;9.006;2022-11-09T05:23:44;4.50;;;2.93;;
9465;SDS011;4771;48.726;9.006;2022-11-09T05:26:29;4.43;;;3.00;;
9465;SDS011;4771;48.726;9.006;2022-11-09T05:28:57;4.65;;;2.80;;
9465;SDS011;4771;48.726;9.006;2022-11-09T05:31:25;6.07;;;3.13;;
9465;SDS011;4771;48.726;9.006;2022-11-09T05:33:53;4.57;;;3.00;;
9465;SDS011;4771;48.726;9.006;2022-11-09T05:36:20;3.67;;;3.00;;
9465;SDS011;4771;48.726;9.006;2022-11-09T05:38:47;4.70;;;3.00;;
9465;SDS011;4771;48.726;9.006;2022-11-09T05:41:14;3.57;;;3.17;;
9465;SDS011;4771;48.726;9.006;2022-11-09T05:43:43;6.73;;;2.90;;
9465;SDS011;4771;48.726;9.006;2022-11-09T05:46:11;5.27;;;3.40;;
9465;SDS011;4771;48.726;9.006;2022-11-09T05:48:39;5.10;;;3.40;;
9465;SDS011;4771;48.726;9.006;2022-11-09T05:51:06;6.43;;;3.40;;
9465;SDS011;4771;48.726;9.006;2022-11-09T05:53:35;4.20;;;3.20;;
9465;SDS011;4771;48.726;9.006;2022-11-09T05:56:03;4.00;;;3.10;;
9465;SDS011;4771;48.726;9.006;2022-11-09T05:58:31;3.93;;;2.80;;
9465;SDS011;4771;48.726;9.006;2022-11-09T06:01:02;4.17;;;2.80;;
9465;SDS011;4771;48.726;9.006;2022-11-09T06:03:30;4.70;;;2.90;;
9465;SDS011;4771;48.726;9.006;2022-11-09T06:05:59;4.10;;;2.80;;
9465;SDS011;4771;48.726;9.006;2022-11-09T06:08:27;4.38;;;3.25;;
9465;SDS011;4771;48.726;9.006;2022-11-09T06:10:57;5.03;;;3.20;;
9465;SDS011;4771;48.726;9.006;2022-11-09T06:13:25;4.77;;;3.37;;
9465;SDS011;4771;48.726;9.006;2022-11-09T06:15:52;5.63;;;3.00;;
9465;SDS011;4771;48.726;9.006;2022-11-09T06:18:22;3.00;;;2.67;;
9465;SDS011;4771;48.726;9.006;2022-11-09T06:20:50;4.90;;;3.00;;
9465;SDS011;4771;48.726;9.006;2022-11-09T06:23:18;8.57;;;3.53;;
9465;SDS011;4771;48.726;9.006;2022-11-09T06:25:49;5.00;;;3.37;;
9465;SDS011;4771;48.726;9.006;2022-11-09T06:28:17;6.70;;;3.50;;
9465;SDS011;4771;48.726;9.006;2022-11-09T06:30:44;5.60;;;3.07;;
9465;SDS011;4771;48.726;9.006;2022-11-09T06:33:11;4.07;;;2.90;;
9465;SDS011;4771;48.726;9.006;2022-11-09T06:35:39;6.10;;;3.50;;
9465;SDS011;4771;48.726;9.006;2022-11-09T06:38:07;6.03;;;3.30;;
9465;SDS011;4771;48.726;9.006;2022-11-09T06:40:35;5.77;;;3.57;;
9465;SDS011;4771;48.726;9.006;2022-11-09T06:43:03;6.25;;;3.38;;
9465;SDS011;4771;48.726;9.006;2022-11-09T06:45:30;5.90;;;3.40;;
9465;SDS011;4771;48.726;9.006;2022-11-09T06:47:58;7.07;;;3.40;;
9465;SDS011;4771;48.726;9.006;2022-11-09T06:50:27;4.93;;;3.27;;
9465;SDS011;4771;48.726;9.006;2022-11-09T06:52:58;7.17;;;3.40;;
9465;SDS011;4771;48.726;9.006;2022-11-09T06:55:26;5.30;;;3.27;;
9465;SDS011;4771;48.726;9.006;2022-11-09T06:57:54;5.03;;;3.53;;
9465;SDS011;4771;48.726;9.006;2022-11-09T07:00:21;3.73;;;3.07;;
9465;SDS011;4771;48.726;9.006;2022-11-09T07:02:49;5.83;;;3.33;;
9465;SDS011;4771;48.726;9.006;2022-11-09T07:05:17;5.63;;;3.20;;
9465;SDS011;4771;48.726;9.006;2022-11-09T07:07:44;5.57;;;3.33;;
9465;SDS011;4771;48.726;9.006;2022-11-09T07:10:12;6.38;;;3.60;;
9465;SDS011;4771;48.726;9.006;2022-11-09T07:12:39;7.47;;;3.87;;
9465;SDS011;4771;48.726;9.006;2022-11-09T07:15:07;6.83;;;3.70;;
9465;SDS011;4771;48.726;9.006;2022-11-09T07:17:35;5.43;;;3.80;;
9465;SDS011;4771;48.726;9.006;2022-11-09T07:20:04;5.80;;;3.50;;
9465;SDS011;4771;48.726;9.006;2022-11-09T07:22:32;4.20;;;3.07;;
9465;SDS011;4771;48.726;9.006;2022-11-09T07:25:04;4.00;;;2.83;;
9465;SDS011;4771;48.726;9.006;2022-11-09T07:27:32;4.50;;;3.30;;
9465;SDS011;4771;48.726;9.006;2022-11-09T07:30:00;3.40;;;3.10;;
9465;SDS011;4771;48.726;9.006;2022-11-09T07:32:28;4.27;;;2.90;;
9465;SDS011;4771;48.726;9.006;2022-11-09T07:34:58;3.38;;;2.53;;
9465;SDS011;4771;48.726;9.006;2022-11-09T07:37:25;3.10;;;2.67;;
9465;SDS011;4771;48.726;9.006;2022-11-09T07:39:52;3.60;;;2.90;;
9465;SDS011;4771;48.726;9.006;2022-11-09T07:42:19;4.40;;;3.40;;
9465;SDS011;4771;48.726;9.006;2022-11-09T07:44:47;3.85;;;3.00;;
9465;SDS011;4771;48.726;9.006;2022-11-09T07:47:14;3.95;;;2.90;;
9465;SDS011;4771;48.726;9.006;2022-11-09T07:49:41;4.13;;;2.80;;
9465;SDS011;4771;48.726;9.006;2022-11-09T07:52:08;5.25;;;3.40;;
9465;SDS011;4771;48.726;9.006;2022-11-09T07:54:35;4.97;;;3.28;;
9465;SDS011;4771;48.726;9.006;2022-11-09T07:57:03;5.00;;;3.30;;
9465;SDS011;4771;48.726;9.006;2022-11-09T07:59:30;5.43;;;3.50;;
9465;SDS011;4771;48.726;9.006;2022-11-09T08:01:59;4.32;;;3.30;;
9465;SDS011;4771;48.726;9.006;2022-11-09T08:04:26;5.93;;;3.30;;
9465;SDS011;4771;48.726;9.006;2022-11-09T08:06:53;7.05;;;3.70;;
9465;SDS011;4771;48.726;9.006;2022-11-09T08:09:20;6.40;;;3.45;;
9465;SDS011;4771;48.726;9.006;2022-11-09T08:11:47;6.07;;;3.53;;
9465;SDS011;4771;48.726;9.006;2022-11-09T08:14:14;4.88;;;3.30;;
9465;SDS011;4771;48.726;9.006;2022-11-09T08:16:41;5.72;;;3.80;;
9465;SDS011;4771;48.726;9.006;2022-11-09T08:19:09;6.43;;;4.00;;
9465;SDS011;4771;48.726;9.006;2022-11-09T08:21:36;8.60;;;4.25;;
9465;SDS011;4771;48.726;9.006;2022-11-09T08:24:04;5.00;;;3.83;;
9465;SDS011;4771;48.726;9.006;2022-11-09T08:26:31;9.45;;;4.20;;
9465;SDS011;4771;48.726;9.006;2022-11-09T08:28:58;4.82;;;3.10;;
9465;SDS011;4771;48.726;9.006;2022-11-09T08:31:25;5.10;;;3.13;;
9465;SDS011;4771;48.726;9.006;2022-11-09T08:33:53;4.80;;;3.40;;
9465;SDS011;4771;48.726;9.006;2022-11-09T08:36:21;5.88;;;3.47;;
9465;SDS011;4771;48.726;9.006;2022-11-09T08:38:50;4.30;;;3.22;;
9465;SDS011;4771;48.726;9.006;2022-11-09T08:41:17;4.07;;;3.22;;
9465;SDS011;4771;48.726;9.006;2022-11-09T08:43:44;4.50;;;3.30;;
9465;SDS011;4771;48.726;9.006;2022-11-09T08:46:11;3.78;;;2.53;;
9465;SDS011;4771;48.726;9.006;2022-11-09T08:48:38;5.55;;;2.72;;
9465;SDS011;4771;48.726;9.006;2022-11-09T08:51:05;5.88;;;2.83;;
9465;SDS011;4771;48.726;9.006;2022-11-09T08:53:33;4.90;;;2.47;;
9465;SDS011;4771;48.726;9.006;2022-11-09T08:56:00;2.25;;;2.03;;
9465;SDS011;4771;48.726;9.006;2022-11-09T08:58:27;5.78;;;2.22;;
9465;SDS011;4771;48.726;9.006;2022-11-09T09:00:54;3.00;;;1.98;;
9465;SDS011;4771;48.726;9.006;2022-11-09T09:03:21;3.45;;;1.80;;
9465;SDS011;4771;48.726;9.006;2022-11-09T09:05:48;2.42;;;1.70;;
9465;SDS011;4771;48.726;9.006;2022-11-09T09:08:15;2.10;;;1.63;;
9465;SDS011;4771;48.726;9.006;2022-11-09T09:10:47;2.33;;;1.80;;
9465;SDS011;4771;48.726;9.006;2022-11-09T09:13:14;3.95;;;1.80;;
9465;SDS011;4771;48.726;9.006;2022-11-09T09:15:43;1.83;;;1.63;;
9465;SDS011;4771;48.726;9.006;2022-11-09T09:18:10;2.15;;;1.48;;
9465;SDS011;4771;48.726;9.006;2022-11-09T09:20:38;2.50;;;1.35;;
9465;SDS011;4771;48.726;9.006;2022-11-09T09:23:05;1.40;;;1.30;;
9465;SDS011;4771;48.726;9.006;2022-11-09T09:25:32;1.90;;;1.27;;
9465;SDS011;4771;48.726;9.006;2022-11-09T09:28:00;2.20;;;1.25;;
9465;SDS011;4771;48.726;9.006;2022-11-09T09:30:27;4.82;;;1.50;;
9465;SDS011;4771;48.726;9.006;2022-11-09T09:32:56;1.88;;;1.38;;
9465;SDS011;4771;48.726;9.006;2022-11-09T09:35:24;2.67;;;1.17;;
9465;SDS011;4771;48.726;9.006;2022-11-09T09:37:52;2.30;;;1.08;;
9465;SDS011;4771;48.726;9.006;2022-11-09T09:42:49;1.58;;;1.33;;
9465;SDS011;4771;48.726;9.006;2022-11-09T09:45:20;1.80;;;1.48;;
9465;SDS011;4771;48.726;9.006;2022-11-09T09:47:51;1.35;;;1.20;;
9465;SDS011;4771;48.726;9.006;2022-11-09T09:50:24;1.77;;;1.30;;
9465;SDS011;4771;48.726;9.006;2022-11-09T09:52:55;3.20;;;1.90;;
9465;SDS011;4771;48.726;9.006;2022-11-09T09:55:26;2.53;;;1.73;;
9465;SDS011;4771;48.726;9.006;2022-11-09T09:58:01;3.08;;;1.50;;
9465;SDS011;4771;48.726;9.006;2022-11-09T10:00:35;2.63;;;1.77;;
9465;SDS011;4771;48.726;9.006;2022-11-09T10:03:03;2.50;;;1.80;;
9465;SDS011;4771;48.726;9.006;2022-11-09T10:05:33;2.63;;;2.00;;
9465;SDS011;4771;48.726;9.006;2022-11-09T10:08:09;2.30;;;1.88;;
9465;SDS011;4771;48.726;9.006;2022-11-09T10:10:47;3.85;;;2.10;;
9465;SDS011;4771;48.726;9.006;2022-11-09T10:13:37;3.40;;;2.42;;
9465;SDS011;4771;48.726;9.006;2022-11-09T10:16:18;2.28;;;1.98;;
9465;SDS011;4771;48.726;9.006;2022-11-09T10:19:10;2.90;;;2.08;;
9465;SDS011;4771;48.726;9.006;2022-11-09T10:21:49;4.40;;;2.20;;
9465;SDS011;4771;48.726;9.006;2022-11-09T10:24:23;3.97;;;2.30;;
9465;SDS011;4771;48.726;9.006;2022-11-09T10:27:00;4.88;;;2.20;;
9465;SDS011;4771;48.726;9.006;2022-11-09T10:29:34;6.10;;;3.65;;
9465;SDS011;4771;48.726;9.006;2022-11-09T10:32:08;2.80;;;1.92;;
9465;SDS011;4771;48.726;9.006;2022-11-09T10:34:39;2.85;;;2.25;;
9465;SDS011;4771;48.726;9.006;2022-11-09T10:37:12;2.88;;;2.30;;
9465;SDS011;4771;48.726;9.006;2022-11-09T10:39:46;3.70;;;2.28;;
9465;SDS011;4771;48.726;9.006;2022-11-09T10:42:18;4.82;;;2.13;;
9465;SDS011;4771;48.726;9.006;2022-11-09T10:44:45;3.33;;;1.98;;
9465;SDS011;4771;48.726;9.006;2022-11-09T10:47:14;3.63;;;2.00;;
9465;SDS011;4771;48.726;9.006;2022-11-09T10:49:42;2.63;;;2.05;;
9465;SDS011;4771;48.726;9.006;2022-11-09T10:55:03;2.92;;;2.20;;
9465;SDS011;4771;48.726;9.006;2022-11-09T10:57:49;8.52;;;2.30;;
9465;SDS011;4771;48.726;9.006;2022-11-09T11:00:21;2.85;;;2.28;;
9465;SDS011;4771;48.726;9.006;2022-11-09T11:02:50;5.15;;;2.33;;
9465;SDS011;4771;48.726;9.006;2022-11-09T11:05:26;4.10;;;2.55;;
9465;SDS011;4771;48.726;9.006;2022-11-09T11:08:03;5.95;;;3.00;;
9465;SDS011;4771;48.726;9.006;2022-11-09T11:10:45;8.07;;;3.85;;
9465;SDS011;4771;48.726;9.006;2022-11-09T11:13:21;6.07;;;3.08;;
9465;SDS011;4771;48.726;9.006;2022-11-09T11:15:49;4.80;;;2.75;;
9465;SDS011;4771;48.726;9.006;2022-11-09T11:18:22;6.15;;;2.60;;
9465;SDS011;4771;48.726;9.006;2022-11-09T11:21:04;3.10;;;2.20;;
9465;SDS011;4771;48.726;9.006;2022-11-09T11:23:36;3.20;;;2.08;;
9465;SDS011;4771;48.726;9.006;2022-11-09T11:26:11;3.03;;;2.28;;
9465;SDS011;4771;48.726;9.006;2022-11-09T11:28:49;3.22;;;2.10;;
9465;SDS011;4771;48.726;9.006;2022-11-09T11:31:21;4.28;;;2.78;;
9465;SDS011;4771;48.726;9.006;2022-11-09T11:33:49;3.60;;;2.17;;
9465;SDS011;4771;48.726;9.006;2022-11-09T11:36:18;3.35;;;2.45;;
9465;SDS011;4771;48.726;9.006;2022-11-09T11:38:55;4.07;;;2.40;;
9465;SDS011;4771;48.726;9.006;2022-11-09T11:44:19;4.57;;;2.67;;
9465;SDS011;4771;48.726;9.006;2022-11-09T11:46:59;3.88;;;2.30;;
9465;SDS011;4771;48.726;9.006;2022-11-09T11:49:39;3.05;;;2.25;;
9465;SDS011;4771;48.726;9.006;2022-11-09T11:52:22;3.30;;;2.40;;
9465;SDS011;4771;48.726;9.006;2022-11-09T11:55:03;3.67;;;2.15;;
9465;SDS011;4771;48.726;9.006;2022-11-09T11:57:46;3.58;;;2.35;;
9465;SDS011;4771;48.726;9.006;2022-11-09T12:00:21;3.58;;;2.45;;
9465;SDS011;4771;48.726;9.006;2022-11-09T12:02:59;3.45;;;2.28;;
9465;SDS011;4771;48.726;9.006;2022-11-09T12:08:37;2.38;;;1.95;;
9465;SDS011;4771;48.726;9.006;2022-11-09T12:11:14;5.82;;;2.10;;
9465;SDS011;4771;48.726;9.006;2022-11-09T12:14:04;2.45;;;1.90;;
9465;SDS011;4771;48.726;9.006;2022-11-09T12:16:40;4.72;;;2.42;;
9465;SDS011;4771;48.726;9.006;2022-11-09T12:19:23;3.47;;;2.10;;
9465;SDS011;4771;48.726;9.006;2022-11-09T12:22:17;3.88;;;2.20;;
9465;SDS011;4771;48.726;9.006;2022-11-09T12:24:51;3.00;;;2.13;;
9465;SDS011;4771;48.726;9.006;2022-11-09T12:30:32;4.38;;;2.03;;
9465;SDS011;4771;48.726;9.006;2022-11-09T12:33:07;2.92;;;2.08;;
9465;SDS011;4771;48.726;9.006;2022-11-09T12:35:39;3.83;;;2.20;;
9465;SDS011;4771;48.726;9.006;2022-11-09T12:38:14;4.18;;;2.20;;
9465;SDS011;4771;48.726;9.006;2022-11-09T12:40:45;3.92;;;2.42;;
9465;SDS011;4771;48.726;9.006;2022-11-09T12:43:19;2.78;;;2.17;;
9465;SDS011;4771;48.726;9.006;2022-11-09T12:45:50;2.80;;;2.17;;
9465;SDS011;4771;48.726;9.006;2022-11-09T12:48:20;3.70;;;1.95;;
9465;SDS011;4771;48.726;9.006;2022-11-09T12:50:49;3.45;;;1.80;;
9465;SDS011;4771;48.726;9.006;2022-11-09T12:53:20;2.88;;;1.90;;
9465;SDS011;4771;48.726;9.006;2022-11-09T12:55:54;4.93;;;2.00;;
9465;SDS011;4771;48.726;9.006;2022-11-09T12:58:27;3.45;;;1.85;;
9465;SDS011;4771;48.726;9.006;2022-11-09T13:00:56;1.92;;;1.80;;
9465;SDS011;4771;48.726;9.006;2022-11-09T13:03:26;4.18;;;1.90;;
9465;SDS011;4771;48.726;9.006;2022-11-09T13:06:08;2.55;;;1.92;;
9465;SDS011;4771;48.726;9.006;2022-11-09T13:08:39;2.10;;;1.90;;
9465;SDS011;4771;48.726;9.006;2022-11-09T13:11:08;2.85;;;2.00;;
9465;SDS011;4771;48.726;9.006;2022-11-09T13:13:43;3.30;;;2.13;;
9465;SDS011;4771;48.726;9.006;2022-11-09T13:16:12;5.43;;;2.08;;
9465;SDS011;4771;48.726;9.006;2022-11-09T13:18:57;3.15;;;1.88;;
9465;SDS011;4771;48.726;9.006;2022-11-09T13:21:31;5.07;;;2.25;;
9465;SDS011;4771;48.726;9.006;2022-11-09T13:24:47;3.15;;;2.08;;
9465;SDS011;4771;48.726;9.006;2022-11-09T13:30:34;2.45;;;2.15;;
9465;SDS011;4771;48.726;9.006;2022-11-09T13:33:16;5.03;;;2.20;;
9465;SDS011;4771;48.726;9.006;2022-11-09T13:35:58;2.88;;;2.20;;
9465;SDS011;4771;48.726;9.006;2022-11-09T13:38:46;5.75;;;2.08;;
9465;SDS011;4771;48.726;9.006;2022-11-09T13:41:54;4.65;;;2.28;;
9465;SDS011;4771;48.726;9.006;2022-11-09T13:44:22;4.03;;;2.10;;
9465;SDS011;4771;48.726;9.006;2022-11-09T13:46:51;2.33;;;2.05;;
9465;SDS011;4771;48.726;9.006;2022-11-09T13:55:16;3.88;;;2.00;;
9465;SDS011;4771;48.726;9.006;2022-11-09T13:57:48;2.70;;;2.10;;
9465;SDS011;4771;48.726;9.006;2022-11-09T14:00:17;5.30;;;2.13;;
9465;SDS011;4771;48.726;9.006;2022-11-09T14:02:57;3.28;;;2.10;;
9465;SDS011;4771;48.726;9.006;2022-11-09T14:05:28;2.30;;;1.90;;
9465;SDS011;4771;48.726;9.006;2022-11-09T14:07:58;2.63;;;2.10;;
9465;SDS011;4771;48.726;9.006;2022-11-09T14:10:41;3.40;;;2.20;;
9465;SDS011;4771;48.726;9.006;2022-11-09T14:13:19;4.80;;;2.83;;
9465;SDS011;4771;48.726;9.006;2022-11-09T14:16:06;3.10;;;2.20;;
9465;SDS011;4771;48.726;9.006;2022-11-09T14:18:43;4.45;;;2.30;;
9465;SDS011;4771;48.726;9.006;2022-11-09T14:21:19;3.40;;;2.08;;
9465;SDS011;4771;48.726;9.006;2022-11-09T14:24:00;4.95;;;4.35;;
9465;SDS011;4771;48.726;9.006;2022-11-09T14:26:29;4.18;;;2.80;;
9465;SDS011;4771;48.726;9.006;2022-11-09T14:28:56;4.57;;;2.55;;
9465;SDS011;4771;48.726;9.006;2022-11-09T14:31:24;4.07;;;2.47;;
9465;SDS011;4771;48.726;9.006;2022-11-09T14:33:59;4.20;;;2.38;;
9465;SDS011;4771;48.726;9.006;2022-11-09T14:36:28;3.05;;;2.50;;
9465;SDS011;4771;48.726;9.006;2022-11-09T14:38:56;2.65;;;2.10;;
9465;SDS011;4771;48.726;9.006;2022-11-09T14:41:26;6.47;;;2.40;;
9465;SDS011;4771;48.726;9.006;2022-11-09T14:43:55;6.35;;;2.80;;
9465;SDS011;4771;48.726;9.006;2022-11-09T14:46:25;3.88;;;2.75;;
9465;SDS011;4771;48.726;9.006;2022-11-09T14:48:55;2.97;;;2.40;;
9465;SDS011;4771;48.726;9.006;2022-11-09T14:51:25;4.15;;;2.75;;
9465;SDS011;4771;48.726;9.006;2022-11-09T14:53:55;4.32;;;3.03;;
9465;SDS011;4771;48.726;9.006;2022-11-09T14:56:24;3.08;;;2.78;;
9465;SDS011;4771;48.726;9.006;2022-11-09T14:58:52;3.72;;;2.78;;
9465;SDS011;4771;48.726;9.006;2022-11-09T15:01:21;3.13;;;2.70;;
9465;SDS011;4771;48.726;9.006;2022-11-09T15:06:32;4.47;;;3.40;;
9465;SDS011;4771;48.726;9.006;2022-11-09T15:09:02;4.65;;;3.13;;
9465;SDS011;4771;48.726;9.006;2022-11-09T15:11:31;3.53;;;2.60;;
9465;SDS011;4771;48.726;9.006;2022-11-09T15:14:09;3.80;;;2.72;;
9465;SDS011;4771;48.726;9.006;2022-11-09T15:16:39;4.40;;;2.60;;
9465;SDS011;4771;48.726;9.006;2022-11-09T15:19:18;3.70;;;2.55;;
9465;SDS011;4771;48.726;9.006;2022-11-09T15:21:46;3.65;;;2.05;;
9465;SDS011;4771;48.726;9.006;2022-11-09T15:24:14;4.60;;;2.30;;
9465;SDS011;4771;48.726;9.006;2022-11-09T15:26:44;4.05;;;2.42;;
9465;SDS011;4771;48.726;9.006;2022-11-09T15:32:10;4.68;;;2.45;;
9465;SDS011;4771;48.726;9.006;2022-11-09T15:34:40;4.68;;;1.90;;
9465;SDS011;4771;48.726;9.006;2022-11-09T15:37:20;4.05;;;2.00;;
9465;SDS011;4771;48.726;9.006;2022-11-09T15:39:53;3.72;;;2.17;;
9465;SDS011;4771;48.726;9.006;2022-11-09T15:42:20;4.88;;;2.38;;
9465;SDS011;4771;48.726;9.006;2022-11-09T15:44:51;2.15;;;1.80;;
9465;SDS011;4771;48.726;9.006;2022-11-09T15:47:22;4.85;;;2.42;;
9465;SDS011;4771;48.726;9.006;2022-11-09T15:49:55;3.05;;;2.47;;
9465;SDS011;4771;48.726;9.006;2022-11-09T15:52:22;3.70;;;2.20;;
9465;SDS011;4771;48.726;9.006;2022-11-09T15:54:50;7.68;;;3.00;;
9465;SDS011;4771;48.726;9.006;2022-11-09T15:57:17;3.05;;;2.58;;
9465;SDS011;4771;48.726;9.006;2022-11-09T15:59:46;3.17;;;2.42;;
9465;SDS011;4771;48.726;9.006;2022-11-09T16:02:14;4.38;;;2.10;;
9465;SDS011;4771;48.726;9.006;2022-11-09T16:04:44;3.03;;;2.00;;